createdAt,value
2023-04-29T00:01:37.172Z,13.55
2023-04-29T00:06:38.873Z,13.70
2023-04-29T00:11:40.628Z,13.55
2023-04-29T00:16:42.384Z,13.73
2023-04-29T00:21:44.198Z,13.25
2023-04-29T00:26:45.854Z,12.70
2023-04-29T00:31:48.384Z,12.73
2023-04-29T00:36:50.589Z,11.82
2023-04-29T00:41:53.464Z,12.13
2023-04-29T00:46:55.964Z,13.18
2023-04-29T00:51:58.166Z,13.23
2023-04-29T00:57:01.644Z,13.68
2023-04-29T01:02:05.065Z,12.35
2023-04-29T01:07:16.134Z,12.85
2023-04-29T01:12:45.629Z,13.55
2023-04-29T01:18:00.395Z,13.20
2023-04-29T01:23:02.563Z,11.85
2023-04-29T01:28:42.344Z,10.93
2023-04-29T01:34:20.396Z,11.57
2023-04-29T01:39:42.085Z,12.02
2023-04-29T01:44:52.714Z,12.20
2023-04-29T01:49:57.092Z,12.55
2023-04-29T01:54:58.884Z,11.60
2023-04-29T02:00:07.010Z,12.63
2023-04-29T02:05:26.475Z,12.00
2023-04-29T02:10:31.541Z,11.85
2023-04-29T02:15:48.021Z,12.27
2023-04-29T02:20:51.906Z,9.05
2023-04-29T02:25:55.706Z,11.40
2023-04-29T02:30:59.407Z,11.85
2023-04-29T02:36:01.077Z,12.10
2023-04-29T02:41:02.784Z,11.55
2023-04-29T02:46:04.833Z,11.18
2023-04-29T02:51:06.764Z,11.10
2023-04-29T02:56:08.488Z,11.57
2023-04-29T03:01:10.309Z,11.88
2023-04-29T03:06:11.991Z,11.77
2023-04-29T03:11:13.675Z,12.15
2023-04-29T03:16:18.953Z,13.25
2023-04-29T03:21:20.663Z,14.65
2023-04-29T03:26:24.330Z,15.18
2023-04-29T03:31:27.550Z,15.48
2023-04-29T03:36:29.488Z,15.80
2023-04-29T03:41:37.774Z,16.38
2023-04-29T03:46:40.839Z,15.95
2023-04-29T03:51:45.216Z,12.93
2023-04-29T03:56:50.201Z,13.88
2023-04-29T04:01:54.155Z,13.45
2023-04-29T04:06:56.724Z,13.77
2023-04-29T04:12:02.952Z,14.30
2023-04-29T04:17:04.810Z,13.60
2023-04-29T04:22:07.829Z,10.35
2023-04-29T04:27:13.440Z,13.18
2023-04-29T04:32:21.815Z,10.93
2023-04-29T04:37:23.823Z,12.07
2023-04-29T04:42:29.404Z,12.73
2023-04-29T04:47:33.419Z,13.70
2023-04-29T04:52:39.751Z,13.23
2023-04-29T04:57:55.551Z,11.98
2023-04-29T05:02:58.146Z,12.32
2023-04-29T05:08:00.337Z,13.98
2023-04-29T05:13:08.468Z,13.43
2023-04-29T05:18:11.905Z,11.75
2023-04-29T05:23:15.721Z,12.10
2023-04-29T05:28:20.281Z,11.23
2023-04-29T05:33:22.399Z,10.73
2023-04-29T05:38:29.377Z,10.75
2023-04-29T05:43:48.704Z,11.10
2023-04-29T05:48:50.875Z,9.15
2023-04-29T05:53:52.683Z,9.30
2023-04-29T05:58:54.649Z,10.00
2023-04-29T06:03:56.787Z,9.35
2023-04-29T06:09:08.629Z,9.98
2023-04-29T06:14:16.075Z,9.93
2023-04-29T06:19:20.888Z,10.57
2023-04-29T06:24:23.622Z,9.73
2023-04-29T06:29:25.451Z,8.77
2023-04-29T06:34:27.174Z,9.05
2023-04-29T06:39:50.185Z,8.68
2023-04-29T06:45:12.226Z,9.13
2023-04-29T06:50:31.720Z,9.13
2023-04-29T06:55:35.690Z,8.52
2023-04-29T07:00:38.292Z,8.00
2023-04-29T07:05:41.897Z,9.38
2023-04-29T07:10:43.786Z,8.20
2023-04-29T07:15:45.452Z,9.65
2023-04-29T07:20:48.610Z,8.35
2023-04-29T07:25:50.559Z,9.05
2023-04-29T07:30:52.863Z,9.00
2023-04-29T07:35:54.695Z,7.75
2023-04-29T07:40:56.612Z,7.40
2023-04-29T07:46:01.835Z,7.82
2023-04-29T07:51:03.795Z,7.60
2023-04-29T07:56:07.649Z,8.10
2023-04-29T08:01:10.461Z,7.40
2023-04-29T08:06:12.724Z,8.35
2023-04-29T08:11:18.903Z,7.47
2023-04-29T08:16:21.977Z,7.10
2023-04-29T08:21:24.077Z,6.65
2023-04-29T08:26:26.058Z,6.20
2023-04-29T08:31:27.724Z,7.50
2023-04-29T08:36:29.963Z,6.53
2023-04-29T08:41:33.212Z,6.53
2023-04-29T08:46:34.999Z,6.07
2023-04-29T08:51:36.890Z,6.18
2023-04-29T08:56:39.814Z,6.47
2023-04-29T09:01:43.050Z,6.63
2023-04-29T09:06:45.510Z,6.72
2023-04-29T09:11:48.362Z,6.55
2023-04-29T09:16:50.611Z,6.38
2023-04-29T09:21:58.149Z,5.90
2023-04-29T09:27:00.434Z,5.63
2023-04-29T09:32:21.624Z,7.30
2023-04-29T09:37:26.259Z,7.35
2023-04-29T09:42:27.930Z,7.85
2023-04-29T09:47:34.022Z,6.85
2023-04-29T09:52:42.501Z,6.85
2023-04-29T09:57:45.764Z,6.47
2023-04-29T10:02:51.787Z,7.15
2023-04-29T10:07:54.444Z,7.22
2023-04-29T10:12:56.733Z,6.95
2023-04-29T10:18:20.651Z,7.35
2023-04-29T10:23:23.805Z,7.13
2023-04-29T10:28:27.808Z,6.88
2023-04-29T10:33:35.423Z,5.95
2023-04-29T10:38:44.878Z,7.20
2023-04-29T10:43:50.395Z,6.95
2023-04-29T10:48:59.612Z,7.70
2023-04-29T10:54:14.705Z,7.00
2023-04-29T10:59:21.110Z,7.57
2023-04-29T11:04:23.471Z,6.28
2023-04-29T11:09:35.458Z,5.43
2023-04-29T11:14:52.693Z,4.57
2023-04-29T11:19:56.217Z,5.57
2023-04-29T11:25:02.123Z,5.22
2023-04-29T11:30:06.539Z,4.82
2023-04-29T11:35:09.676Z,4.80
2023-04-29T11:40:13.271Z,4.88
2023-04-29T11:45:21.140Z,4.35
2023-04-29T11:50:23.484Z,5.47
2023-04-29T11:55:27.381Z,5.53
2023-04-29T12:00:31.230Z,5.00
2023-04-29T12:05:32.944Z,4.55
2023-04-29T12:10:37.425Z,4.75
2023-04-29T12:15:40.355Z,4.90
2023-04-29T12:20:42.368Z,4.55
2023-04-29T12:25:55.519Z,4.43
2023-04-29T12:30:59.101Z,4.10
2023-04-29T12:36:25.274Z,5.22
2023-04-29T12:41:44.335Z,3.95
2023-04-29T12:46:46.159Z,4.82
2023-04-29T12:51:51.109Z,3.95
2023-04-29T12:56:53.814Z,3.92
2023-04-29T13:01:55.752Z,4.85
2023-04-29T13:07:00.929Z,4.93
2023-04-29T13:12:02.966Z,3.60
2023-04-29T13:17:06.194Z,4.00
2023-04-29T13:22:07.901Z,4.28
2023-04-29T13:27:10.493Z,3.92
2023-04-29T13:32:12.550Z,3.97
2023-04-29T13:37:14.298Z,3.78
2023-04-29T13:42:20.142Z,4.13
2023-04-29T13:47:26.043Z,4.40
2023-04-29T13:58:03.039Z,3.45
2023-04-29T14:08:01.484Z,3.33
2023-04-29T14:13:03.297Z,3.38
2023-04-29T14:18:07.647Z,3.13
2023-04-29T14:23:09.395Z,3.55
2023-04-29T14:28:11.488Z,3.03
2023-04-29T14:33:13.189Z,2.30
2023-04-29T14:38:14.901Z,2.17
2023-04-29T14:43:16.584Z,3.28
2023-04-29T14:48:19.913Z,2.80
2023-04-29T14:53:22.082Z,2.63
2023-04-29T14:58:23.865Z,1.95
2023-04-29T15:03:26.104Z,1.98
2023-04-29T15:08:28.097Z,2.20
2023-04-29T15:13:30.198Z,2.08
2023-04-29T15:18:33.634Z,2.28
2023-04-29T15:23:35.285Z,2.05
2023-04-29T15:28:38.175Z,1.88
2023-04-29T15:33:39.906Z,2.00
2023-04-29T15:38:41.789Z,2.72
2023-04-29T15:43:43.478Z,2.60
2023-04-29T15:48:45.419Z,3.38
2023-04-29T15:53:49.474Z,2.60
2023-04-29T15:58:53.290Z,2.90
2023-04-29T16:03:54.971Z,2.50
2023-04-29T16:08:56.796Z,1.80
2023-04-29T16:13:58.551Z,1.98
2023-04-29T16:19:00.247Z,2.30
2023-04-29T16:24:04.236Z,3.50
2023-04-29T16:29:06.402Z,2.70
2023-04-29T16:34:08.064Z,2.50
2023-04-29T16:39:09.750Z,2.72
2023-04-29T16:44:11.799Z,2.30
2023-04-29T16:49:15.394Z,3.00
2023-04-29T16:54:18.434Z,4.00
2023-04-29T16:59:20.629Z,1.90
2023-04-29T17:04:23.090Z,1.60
2023-04-29T17:09:26.007Z,2.17
2023-04-29T17:14:27.808Z,2.35
2023-04-29T17:19:29.687Z,3.10
2023-04-29T17:24:32.672Z,2.05
2023-04-29T17:29:34.339Z,1.98
2023-04-29T17:34:37.411Z,2.10
2023-04-29T17:39:41.064Z,2.03
2023-04-29T17:44:42.659Z,1.80
2023-04-29T17:49:44.470Z,1.60
2023-04-29T17:54:46.115Z,1.60
2023-04-29T17:59:50.132Z,1.60
2023-04-29T18:04:53.966Z,1.65
2023-04-29T18:09:56.115Z,1.75
2023-04-29T18:14:58.023Z,2.67
2023-04-29T18:19:59.696Z,4.50
2023-04-29T18:25:01.369Z,5.97
2023-04-29T18:30:05.905Z,5.63
2023-04-29T18:35:09.613Z,4.20
2023-04-29T18:40:11.941Z,3.80
2023-04-29T18:45:13.624Z,3.78
2023-04-29T18:50:15.342Z,3.95
2023-04-29T18:55:17.043Z,3.65
2023-04-29T19:00:19.904Z,4.18
2023-04-29T19:05:21.723Z,4.07
2023-04-29T19:10:23.541Z,3.55
2023-04-29T19:15:27.968Z,3.75
2023-04-29T19:20:29.754Z,3.72
2023-04-29T19:25:31.985Z,4.10
2023-04-29T19:30:34.862Z,4.32
2023-04-29T19:35:36.749Z,4.68
2023-04-29T19:40:38.561Z,4.68
2023-04-29T19:45:40.681Z,5.05
2023-04-29T19:50:42.402Z,5.40
2023-04-29T19:55:44.673Z,5.32
2023-04-29T20:00:46.414Z,5.28
2023-04-29T20:05:49.429Z,4.95
2023-04-29T20:10:51.222Z,6.38
2023-04-29T20:15:54.349Z,6.63
2023-04-29T20:20:56.435Z,6.25
2023-04-29T20:25:58.405Z,6.28
2023-04-29T20:31:00.151Z,6.78
2023-04-29T20:36:06.546Z,7.85
2023-04-29T20:41:08.428Z,7.13
2023-04-29T20:46:12.201Z,7.50
2023-04-29T20:51:14.166Z,8.02
2023-04-29T20:56:16.248Z,8.05
2023-04-29T21:01:19.725Z,8.70
2023-04-29T21:06:21.779Z,8.25
2023-04-29T21:11:23.845Z,7.85
2023-04-29T21:16:28.252Z,8.45
2023-04-29T21:21:31.821Z,8.55
2023-04-29T21:26:33.761Z,8.10
2023-04-29T21:31:38.782Z,8.48
2023-04-29T21:36:47.149Z,8.45
2023-04-29T21:42:11.057Z,9.13
2023-04-29T21:47:20.830Z,9.48
2023-04-29T21:52:28.204Z,8.93
2023-04-29T21:57:44.968Z,8.45
2023-04-29T22:02:53.862Z,9.57
2023-04-29T22:08:06.150Z,8.80
2023-04-29T22:13:08.486Z,9.65
2023-04-29T22:18:22.270Z,9.65
2023-04-29T22:23:24.101Z,11.02
2023-04-29T22:28:28.446Z,10.82
2023-04-29T22:34:04.769Z,10.65
2023-04-29T22:39:14.171Z,11.70
2023-04-29T22:44:19.744Z,11.27
2023-04-29T22:49:21.371Z,10.23
2023-04-29T22:54:22.992Z,10.73
2023-04-29T22:59:24.631Z,12.77
2023-04-29T23:04:26.361Z,13.90
2023-04-29T23:09:28.062Z,12.65
2023-04-29T23:14:29.696Z,10.93
2023-04-29T23:19:31.413Z,11.77
2023-04-29T23:24:42.865Z,11.77
2023-04-29T23:30:02.432Z,10.68
2023-04-29T23:35:04.291Z,12.43
2023-04-29T23:40:07.356Z,11.68
2023-04-29T23:45:09.521Z,12.57
2023-04-29T23:50:11.245Z,11.65
2023-04-29T23:55:12.872Z,12.00
